Time;durP1;ratioP1;P1;durP2;ratioP2;P2;SDS_P1;SDS_P2;PMS_P1;PMS_P2;Temp;Humidity;BMP_temperature;BMP_pressure;BME280_temperature;BME280_humidity;BME280_pressure;Samples;Min_cycle;Max_cycle;Signal;HPM_P1;HPM_P2
2022/03/13 00:00:52;;;;;;;277.20;90.00;;;;;;;-5.05;48.02;99727.34;107644;1282;22588;-71
2022/03/13 00:03:22;;;;;;;200.90;71.20;;;;;;;-5.07;48.36;99722.55;107623;1282;22561;-75
2022/03/13 00:05:52;;;;;;;144.40;51.20;;;;;;;-5.09;49.22;99718.78;107598;1282;22545;-72
2022/03/13 00:08:31;;;;;;;197.80;66.80;;;;;;;-5.09;48.61;99722.02;107635;1282;22645;-71
2022/03/13 00:11:17;;;;;;;191.70;63.30;;;;;;;-5.11;49.16;99723.19;107652;1282;22589;-71
2022/03/13 00:13:50;;;;;;;197.10;71.10;;;;;;;-5.12;49.11;99718.75;107598;1282;25289;-79
2022/03/13 00:16:18;;;;;;;400.40;113.30;;;;;;;-5.13;48.39;99721.46;107627;1282;22708;-72
2022/03/13 00:18:48;;;;;;;381.00;109.50;;;;;;;-5.15;48.43;99715.98;107720;1282;22696;-75
2022/03/13 00:21:18;;;;;;;376.90;109.10;;;;;;;-5.16;48.55;99720.05;107921;1282;22562;-73
2022/03/13 00:23:47;;;;;;;302.30;96.30;;;;;;;-5.18;48.46;99718.15;107933;1282;22541;-76
2022/03/13 00:26:16;;;;;;;256.60;88.60;;;;;;;-5.20;48.61;99716.43;107950;1281;22585;-76
2022/03/13 00:28:46;;;;;;;270.50;89.00;;;;;;;-5.20;48.62;99717.61;107976;1282;22628;-74
2022/03/13 00:31:13;;;;;;;237.90;79.90;;;;;;;-5.22;48.67;99722.00;107882;1282;23014;-73
2022/03/13 00:33:40;;;;;;;206.10;73.00;;;;;;;-5.24;49.01;99723.66;107911;1282;25294;-72
2022/03/13 00:36:07;;;;;;;194.00;69.10;;;;;;;-5.25;49.05;99727.38;107944;1282;22543;-84
2022/03/13 00:38:34;;;;;;;200.60;74.90;;;;;;;-5.26;49.54;99723.10;107915;1282;24348;-73
2022/03/13 00:41:02;;;;;;;174.60;63.80;;;;;;;-5.27;49.04;99723.95;107937;1282;22538;-73
2022/03/13 00:43:29;;;;;;;172.90;61.90;;;;;;;-5.30;50.62;99728.17;107935;1282;22544;-72
2022/03/13 00:45:57;;;;;;;194.20;70.90;;;;;;;-5.32;49.47;99725.92;107974;1282;22621;-72
2022/03/13 00:48:27;;;;;;;193.90;71.20;;;;;;;-5.34;49.29;99724.00;107960;1282;22547;-73
2022/03/13 00:50:54;;;;;;;156.20;57.90;;;;;;;-5.37;49.32;99723.98;107933;1282;22551;-71
2022/03/13 00:53:21;;;;;;;135.60;53.40;;;;;;;-5.38;49.67;99727.36;107891;1282;22737;-71
2022/03/13 00:55:48;;;;;;;124.90;51.80;;;;;;;-5.41;50.39;99724.09;107920;1282;22582;-72
2022/03/13 00:58:15;;;;;;;145.80;56.10;;;;;;;-5.42;49.82;99721.35;107933;1282;24017;-77
2022/03/13 01:00:42;;;;;;;194.10;67.80;;;;;;;-5.43;49.36;99721.16;107948;1282;22563;-81
2022/03/13 01:03:28;;;;;;;172.80;66.20;;;;;;;-5.45;49.58;99719.09;107937;1281;24473;-71
2022/03/13 01:05:55;;;;;;;192.30;71.40;;;;;;;-5.48;49.82;99715.64;107953;1282;22555;-71
2022/03/13 01:08:22;;;;;;;156.00;62.40;;;;;;;-5.51;50.59;99718.31;107942;1282;22560;-73
2022/03/13 01:10:50;;;;;;;185.80;68.30;;;;;;;-5.53;49.78;99711.64;107970;1282;22556;-73
2022/03/13 01:13:19;;;;;;;187.30;68.10;;;;;;;-5.56;49.92;99712.80;107920;1282;24237;-72
2022/03/13 01:15:48;;;;;;;185.70;68.40;;;;;;;-5.58;50.70;99709.54;107930;1282;22582;-72
2022/03/13 01:18:16;;;;;;;193.70;69.00;;;;;;;-5.60;51.65;99711.54;107703;1282;24351;-72
2022/03/13 01:20:47;;;;;;;201.60;79.80;;;;;;;-5.61;50.44;99705.73;107651;1281;22626;-72
2022/03/13 01:23:15;;;;;;;248.10;87.80;;;;;;;-5.62;50.37;99706.06;107607;1282;22541;-72
2022/03/13 01:25:42;;;;;;;155.00;59.40;;;;;;;-5.63;50.84;99699.60;107773;1282;23690;-77
2022/03/13 01:28:09;;;;;;;184.70;72.80;;;;;;;-5.62;50.52;99699.95;107656;1281;22551;-75
2022/03/13 01:30:36;;;;;;;149.90;60.50;;;;;;;-5.64;50.60;99696.38;107611;1282;22563;-75
2022/03/13 01:33:03;;;;;;;196.10;72.10;;;;;;;-5.65;50.68;99698.73;107619;1282;22663;-77
2022/03/13 01:35:30;;;;;;;204.40;77.60;;;;;;;-5.63;51.45;99694.52;107619;1282;22745;-76
2022/03/13 01:37:58;;;;;;;213.80;81.80;;;;;;;-5.59;52.90;99698.48;107619;1282;23389;-73
2022/03/13 01:40:25;;;;;;;214.20;80.10;;;;;;;-5.57;54.29;99695.32;107668;1282;22581;-72
2022/03/13 01:42:55;;;;;;;218.90;79.00;;;;;;;-5.54;55.67;99693.81;107589;1282;25414;-71
2022/03/13 01:45:25;;;;;;;211.20;82.80;;;;;;;-5.52;56.62;99697.74;107335;1282;375805;-78
2022/03/13 01:47:53;;;;;;;239.30;90.60;;;;;;;-5.49;57.35;99699.49;107652;1282;22642;-72
2022/03/13 01:50:20;;;;;;;248.00;90.70;;;;;;;-5.47;57.50;99693.26;107656;1282;22867;-71
2022/03/13 01:52:48;;;;;;;277.10;94.70;;;;;;;-5.47;56.91;99690.55;107640;1282;23955;-72
2022/03/13 01:55:17;;;;;;;272.60;94.60;;;;;;;-5.47;56.37;99689.86;107656;1282;22669;-72
2022/03/13 01:57:47;;;;;;;314.50;106.80;;;;;;;-5.48;55.81;99688.48;107644;1282;22546;-72
2022/03/13 02:00:16;;;;;;;345.90;113.60;;;;;;;-5.50;55.28;99684.56;107619;1281;22579;-72
2022/03/13 02:02:47;;;;;;;293.20;106.00;;;;;;;-5.52;55.07;99684.02;107650;1282;22696;-76
2022/03/13 02:05:34;;;;;;;276.30;97.00;;;;;;;-5.54;54.62;99681.08;107738;1281;22603;-72
2022/03/13 02:08:21;;;;;;;234.50;83.80;;;;;;;-5.57;54.66;99678.83;107674;1282;22616;-71
2022/03/13 02:10:49;;;;;;;228.90;83.40;;;;;;;-5.62;54.43;99677.23;107640;1282;22703;-72
2022/03/13 02:13:19;;;;;;;246.50;88.70;;;;;;;-5.64;54.28;99677.38;107640;1282;22911;-78
2022/03/13 02:15:47;;;;;;;349.60;124.60;;;;;;;-5.67;54.06;99679.02;107667;1282;22724;-71
2022/03/13 02:18:14;;;;;;;492.20;187.70;;;;;;;-5.71;54.29;99677.25;107641;1282;22636;-72
2022/03/13 02:20:43;;;;;;;471.40;184.50;;;;;;;-5.73;54.10;99675.71;107673;1282;24231;-72
2022/03/13 02:23:30;;;;;;;419.20;150.90;;;;;;;-5.76;54.19;99674.30;107655;1282;22582;-73
2022/03/13 02:25:59;;;;;;;386.90;141.10;;;;;;;-5.79;54.14;99676.60;107619;1282;25401;-72
2022/03/13 02:28:30;;;;;;;309.80;119.10;;;;;;;-5.82;54.40;99675.90;107639;1282;22673;-72
2022/03/13 02:30:59;;;;;;;321.10;113.80;;;;;;;-5.84;54.63;99673.31;107563;1282;22729;-71
2022/03/13 02:33:27;;;;;;;340.60;124.30;;;;;;;-5.85;54.25;99673.29;107593;1282;22644;-75
2022/03/13 02:36:03;;;;;;;368.20;131.20;;;;;;;-5.86;54.18;99672.09;107602;1282;22545;-72
2022/03/13 02:38:31;;;;;;;362.70;125.90;;;;;;;-5.87;54.23;99667.15;107629;1282;25274;-75
2022/03/13 02:40:59;;;;;;;312.90;110.50;;;;;;;-5.88;54.04;99667.14;108008;1282;22578;-75
2022/03/13 02:43:26;;;;;;;236.60;85.10;;;;;;;-5.89;54.20;99661.02;107668;1282;22586;-71
2022/03/13 02:45:53;;;;;;;212.70;84.20;;;;;;;-5.87;54.29;99657.99;107639;1282;22674;-76
2022/03/13 02:48:21;;;;;;;201.40;79.40;;;;;;;-5.84;55.23;99654.14;107602;1282;25398;-71
2022/03/13 02:50:48;;;;;;;218.00;81.40;;;;;;;-5.80;56.21;99657.26;107619;1282;22642;-72
2022/03/13 02:53:17;;;;;;;213.60;85.40;;;;;;;-5.76;57.63;99655.79;107638;1282;22584;-71
2022/03/13 02:55:44;;;;;;;204.30;82.10;;;;;;;-5.74;58.23;99652.77;107617;1282;22550;-71
2022/03/13 02:58:11;;;;;;;196.30;79.50;;;;;;;-5.71;58.66;99654.15;107655;1282;22616;-74
2022/03/13 03:00:46;;;;;;;212.70;76.40;;;;;;;-5.69;59.16;99653.02;107650;1282;22557;-73
2022/03/13 03:03:16;;;;;;;207.30;80.30;;;;;;;-5.70;58.97;99655.73;107638;1282;22572;-72
2022/03/13 03:05:43;;;;;;;260.60;96.00;;;;;;;-5.71;58.40;99653.98;107648;1282;22658;-71
2022/03/13 03:08:11;;;;;;;262.00;97.10;;;;;;;-5.73;57.94;99655.17;107651;1282;22634;-71
2022/03/13 03:10:39;;;;;;;262.00;99.10;;;;;;;-5.75;57.51;99656.33;107591;1282;23033;-74
2022/03/13 03:13:10;;;;;;;270.50;101.50;;;;;;;-5.77;57.21;99657.97;107678;1282;23161;-72
2022/03/13 03:15:41;;;;;;;258.30;97.60;;;;;;;-5.82;57.05;99656.38;107707;1282;22639;-72
2022/03/13 03:18:09;;;;;;;249.10;97.30;;;;;;;-5.87;56.89;99655.78;107659;1282;24323;-72
2022/03/13 03:20:38;;;;;;;248.00;92.10;;;;;;;-5.91;56.82;99655.23;107688;1282;22619;-72
2022/03/13 03:23:06;;;;;;;236.20;88.90;;;;;;;-5.96;56.66;99653.63;107640;1282;22642;-72
2022/03/13 03:25:32;;;;;;;232.30;83.00;;;;;;;-5.98;56.74;99649.85;107611;1282;22668;-77
2022/03/13 03:28:00;;;;;;;242.20;90.60;;;;;;;-6.00;56.45;99653.56;107667;1282;22722;-72
2022/03/13 03:30:29;;;;;;;230.30;88.00;;;;;;;-6.03;56.31;99656.40;107641;1281;22569;-76
2022/03/13 03:32:57;;;;;;;238.90;90.30;;;;;;;-6.06;56.64;99650.91;107635;1282;22620;-72
2022/03/13 03:35:25;;;;;;;215.20;86.90;;;;;;;-6.09;56.81;99654.92;107670;1282;22672;-72
2022/03/13 03:37:54;;;;;;;240.80;88.30;;;;;;;-6.15;56.78;99655.50;107675;1282;22570;-73
2022/03/13 03:40:23;;;;;;;218.00;79.40;;;;;;;-6.18;56.57;99650.70;107647;1282;24249;-72
2022/03/13 03:42:50;;;;;;;227.20;81.50;;;;;;;-6.20;56.77;99644.55;107655;1282;22571;-74
2022/03/13 03:45:18;;;;;;;216.10;83.50;;;;;;;-6.17;56.75;99645.80;107620;1282;22732;-74
2022/03/13 03:47:45;;;;;;;231.80;89.00;;;;;;;-6.15;57.83;99651.24;107656;1282;22645;-71
2022/03/13 03:50:14;;;;;;;240.80;92.30;;;;;;;-6.13;58.58;99652.83;107694;1282;22624;-71
2022/03/13 03:52:41;;;;;;;243.30;88.80;;;;;;;-6.10;59.52;99653.91;107652;1282;22565;-71
2022/03/13 03:55:08;;;;;;;228.90;85.20;;;;;;;-6.08;60.28;99655.11;107673;1282;22554;-75
2022/03/13 03:57:35;;;;;;;241.50;89.20;;;;;;;-6.05;60.89;99657.02;107619;1282;22603;-71
2022/03/13 04:00:05;;;;;;;245.60;86.10;;;;;;;-6.03;61.22;99653.17;107631;1282;22616;-71
2022/03/13 04:02:33;;;;;;;254.00;90.00;;;;;;;-6.03;61.24;99652.66;107955;1282;22585;-71
2022/03/13 04:05:01;;;;;;;273.30;95.10;;;;;;;-6.04;60.63;99647.20;107622;1282;22567;-74
2022/03/13 04:07:28;;;;;;;260.60;93.40;;;;;;;-6.05;60.10;99646.86;107643;1282;22674;-76
2022/03/13 04:09:55;;;;;;;260.40;96.70;;;;;;;-6.05;59.63;99649.06;107655;1282;22587;-71
2022/03/13 04:12:22;;;;;;;265.80;98.50;;;;;;;-6.07;59.32;99642.40;107645;1282;22629;-71
2022/03/13 04:14:49;;;;;;;238.30;87.70;;;;;;;-6.10;59.00;99641.70;107644;1282;26569;-74
2022/03/13 04:17:16;;;;;;;225.40;81.80;;;;;;;-6.14;58.58;99638.73;107665;1282;24117;-76
2022/03/13 04:19:43;;;;;;;217.60;78.70;;;;;;;-6.17;58.57;99637.65;107648;1282;22661;-77
2022/03/13 04:22:10;;;;;;;291.80;104.10;;;;;;;-6.22;58.61;99638.94;107676;1282;22888;-76
2022/03/13 04:24:37;;;;;;;305.30;107.60;;;;;;;-6.26;58.42;99638.17;107647;1282;22554;-78
2022/03/13 04:27:04;;;;;;;285.50;105.50;;;;;;;-6.30;58.26;99638.45;107618;1280;24213;-77
2022/03/13 04:29:34;;;;;;;265.10;95.00;;;;;;;-6.34;58.31;99638.71;107701;1282;24297;-76
2022/03/13 04:32:08;;;;;;;229.50;86.40;;;;;;;-6.39;58.29;99639.81;107600;1282;22585;-84
2022/03/13 04:34:36;;;;;;;214.90;81.50;;;;;;;-6.42;58.44;99642.30;107646;1282;24308;-75
2022/03/13 04:37:03;;;;;;;215.00;81.90;;;;;;;-6.44;58.18;99642.42;107638;1282;23566;-74
2022/03/13 04:39:35;;;;;;;222.70;82.00;;;;;;;-6.42;58.65;99642.80;107634;1282;23548;-74
2022/03/13 04:42:06;;;;;;;208.40;78.70;;;;;;;-6.40;59.46;99641.98;107993;1281;22565;-74
2022/03/13 04:44:33;;;;;;;202.10;79.60;;;;;;;-6.37;60.69;99650.02;108092;1282;25094;-82
2022/03/13 04:47:02;;;;;;;210.50;77.50;;;;;;;-6.36;61.67;99649.70;107670;1282;22637;-74
2022/03/13 04:49:29;;;;;;;184.80;74.80;;;;;;;-6.35;61.94;99649.04;107653;1282;22541;-77
2022/03/13 04:51:56;;;;;;;202.30;74.10;;;;;;;-6.33;62.49;99648.39;107654;1282;22782;-74
2022/03/13 04:54:23;;;;;;;201.30;72.60;;;;;;;-6.29;62.74;99651.85;107663;1282;22583;-74
2022/03/13 04:56:50;;;;;;;206.90;77.70;;;;;;;-6.29;62.66;99653.05;107646;1282;22578;-74
2022/03/13 04:59:17;;;;;;;209.10;79.40;;;;;;;-6.29;62.01;99655.25;107654;1282;22671;-75
2022/03/13 05:01:44;;;;;;;239.10;83.30;;;;;;;-6.30;61.67;99657.27;107650;1282;22898;-75
2022/03/13 05:04:11;;;;;;;216.30;80.70;;;;;;;-6.31;61.12;99655.39;107649;1282;22544;-74
2022/03/13 05:06:45;;;;;;;226.60;83.70;;;;;;;-6.31;60.50;99658.77;107651;1281;22558;-74
2022/03/13 05:09:12;;;;;;;224.10;79.40;;;;;;;-6.32;60.31;99658.56;107667;1282;22541;-76
2022/03/13 05:11:39;;;;;;;205.70;81.50;;;;;;;-6.35;59.98;99655.30;107609;1282;22592;-80
2022/03/13 05:14:07;;;;;;;228.10;85.50;;;;;;;-6.37;59.86;99660.20;107641;1282;22572;-73
2022/03/13 05:16:33;;;;;;;226.80;82.20;;;;;;;-6.38;59.82;99658.47;107656;1282;22631;-73
2022/03/13 05:19:00;;;;;;;205.20;81.90;;;;;;;-6.40;59.94;99666.06;107627;1282;22657;-74
2022/03/13 05:21:28;;;;;;;208.80;81.40;;;;;;;-6.43;59.48;99668.54;107658;1282;22539;-73
2022/03/13 05:23:56;;;;;;;213.90;80.40;;;;;;;-6.45;59.68;99668.19;107657;1282;22716;-73
2022/03/13 05:26:23;;;;;;;218.10;81.60;;;;;;;-6.46;59.66;99668.50;107650;1282;22756;-73
2022/03/13 05:28:50;;;;;;;205.70;78.20;;;;;;;-6.48;59.53;99667.27;107680;1282;22547;-73
2022/03/13 05:31:17;;;;;;;181.80;74.40;;;;;;;-6.45;59.46;99668.85;107635;1282;22573;-73
2022/03/13 05:33:44;;;;;;;225.00;89.90;;;;;;;-6.35;59.71;99671.59;107632;1282;22701;-73
2022/03/13 05:36:12;;;;;;;214.20;85.00;;;;;;;-6.20;60.43;99669.83;107679;1282;22569;-74
2022/03/13 05:38:39;;;;;;;231.90;91.70;;;;;;;-5.99;61.93;99670.20;107664;1282;23973;-75
2022/03/13 05:41:06;;;;;;;240.70;98.40;;;;;;;-5.77;62.86;99672.23;107633;1282;22785;-74
2022/03/13 05:43:33;;;;;;;252.00;98.90;;;;;;;-5.54;63.48;99671.41;107672;1282;22559;-75
2022/03/13 05:46:01;;;;;;;252.30;100.80;;;;;;;-5.31;64.01;99675.16;107658;1282;22648;-77
2022/03/13 05:48:30;;;;;;;245.80;98.10;;;;;;;-5.07;63.95;99676.36;107662;1282;22565;-74
2022/03/13 05:50:57;;;;;;;228.10;91.70;;;;;;;-4.86;63.83;99675.95;107672;1282;22553;-76
2022/03/13 05:53:25;;;;;;;228.30;88.40;;;;;;;-4.69;63.77;99681.10;107653;1282;23169;-78
2022/03/13 05:55:52;;;;;;;227.40;87.00;;;;;;;-4.54;63.60;99682.82;107679;1282;22562;-83
2022/03/13 05:58:19;;;;;;;239.50;88.60;;;;;;;-4.36;63.56;99686.60;107697;1282;22573;-74
2022/03/13 06:01:03;;;;;;;232.80;91.30;;;;;;;-4.18;63.15;99688.15;107652;1282;22566;-72
2022/03/13 06:03:30;;;;;;;247.10;94.50;;;;;;;-3.94;63.04;99682.44;107618;1282;22569;-74
2022/03/13 06:05:58;;;;;;;242.40;95.60;;;;;;;-3.73;62.71;99683.66;107643;1282;22673;-72
2022/03/13 06:08:25;;;;;;;227.50;93.40;;;;;;;-3.48;62.42;99686.42;107696;1282;23827;-82
2022/03/13 06:10:52;;;;;;;236.80;95.70;;;;;;;-3.23;62.11;99685.91;107688;1282;22557;-73
2022/03/13 06:13:22;;;;;;;256.00;99.80;;;;;;;-2.97;61.61;99686.08;107650;1282;25518;-73
2022/03/13 06:15:49;;;;;;;251.50;99.20;;;;;;;-2.73;61.12;99681.60;107617;1282;22763;-75
2022/03/13 06:18:16;;;;;;;240.30;99.90;;;;;;;-2.53;60.42;99681.35;107639;1282;22707;-71
2022/03/13 06:20:43;;;;;;;248.00;104.40;;;;;;;-2.32;59.82;99679.89;107646;1282;23598;-75
2022/03/13 06:23:13;;;;;;;301.60;119.50;;;;;;;-2.08;59.03;99683.71;107630;1282;22527;-78
2022/03/13 06:25:41;;;;;;;579.70;190.50;;;;;;;-1.85;58.51;99683.40;107695;1282;22728;-77
2022/03/13 06:28:08;;;;;;;397.70;127.80;;;;;;;-1.77;57.83;99681.52;107650;1282;22726;-76
2022/03/13 06:30:35;;;;;;;438.10;148.10;;;;;;;-1.86;57.39;99677.26;107609;1282;22565;-73
2022/03/13 06:33:02;;;;;;;748.30;231.90;;;;;;;-1.93;57.17;99678.44;107585;1282;22720;-72
2022/03/13 06:35:30;;;;;;;423.30;130.90;;;;;;;-1.97;57.03;99680.14;107565;1282;23462;-71
2022/03/13 06:37:57;;;;;;;304.00;110.50;;;;;;;-1.92;56.86;99685.27;107647;1282;22577;-74
2022/03/13 06:40:25;;;;;;;273.30;106.30;;;;;;;-1.94;56.63;99689.02;107627;1282;22563;-76
2022/03/13 06:42:54;;;;;;;251.40;101.50;;;;;;;-1.97;56.31;99688.67;107724;1282;25479;-70
2022/03/13 06:45:22;;;;;;;208.20;82.80;;;;;;;-1.99;56.36;99689.36;107748;1282;22555;-70
2022/03/13 06:47:50;;;;;;;221.40;89.90;;;;;;;-1.97;56.28;99685.77;107650;1282;23225;-71
2022/03/13 06:50:19;;;;;;;256.10;94.00;;;;;;;-1.93;56.18;99688.34;107645;1282;25383;-75
2022/03/13 06:52:48;;;;;;;220.30;84.90;;;;;;;-1.87;56.17;99687.83;107665;1282;22766;-72
2022/03/13 06:55:16;;;;;;;407.90;129.20;;;;;;;-1.78;55.94;99687.85;107695;1282;22589;-71
2022/03/13 06:57:44;;;;;;;477.00;157.30;;;;;;;-1.69;56.11;99691.61;107668;1282;22555;-71
2022/03/13 07:00:12;;;;;;;292.70;98.80;;;;;;;-1.63;55.91;99695.05;107671;1282;22705;-72
2022/03/13 07:02:39;;;;;;;244.60;94.30;;;;;;;-1.57;55.47;99696.23;107728;1282;22558;-72
2022/03/13 07:05:07;;;;;;;211.60;87.20;;;;;;;-1.54;55.31;99693.34;107677;1282;22873;-72
2022/03/13 07:07:34;;;;;;;221.70;89.80;;;;;;;-1.51;55.40;99690.75;107672;1281;22709;-72
2022/03/13 07:10:02;;;;;;;230.50;93.70;;;;;;;-1.48;55.32;99692.83;107699;1282;22548;-73
2022/03/13 07:12:29;;;;;;;198.10;79.90;;;;;;;-1.43;55.53;99689.58;107869;1282;22702;-82
2022/03/13 07:14:56;;;;;;;231.20;91.70;;;;;;;-1.32;55.34;99687.35;107649;1282;23305;-72
2022/03/13 07:17:24;;;;;;;155.10;66.00;;;;;;;-1.22;55.27;99685.13;108026;1281;22572;-72
2022/03/13 07:19:52;;;;;;;195.80;75.30;;;;;;;-1.10;55.39;99683.23;108060;1282;22761;-73
2022/03/13 07:22:19;;;;;;;193.20;73.90;;;;;;;-0.98;55.15;99681.48;107682;1282;22634;-73
2022/03/13 07:24:46;;;;;;;139.90;58.20;;;;;;;-0.84;54.58;99681.97;107660;1282;22562;-76
2022/03/13 07:27:15;;;;;;;159.20;62.80;;;;;;;-0.66;54.26;99677.63;107683;1282;22703;-76
2022/03/13 07:29:42;;;;;;;104.20;43.40;;;;;;;-0.52;53.55;99680.84;107690;1282;22572;-76
2022/03/13 07:32:10;;;;;;;108.00;46.60;;;;;;;-0.37;53.38;99678.37;107637;1282;22775;-73
2022/03/13 07:34:37;;;;;;;107.70;49.20;;;;;;;-0.21;52.96;99681.20;107717;1282;24278;-78
2022/03/13 07:37:05;;;;;;;92.30;41.10;;;;;;;-0.07;52.48;99683.35;107684;1282;22587;-84
2022/03/13 07:39:32;;;;;;;98.60;44.90;;;;;;;0.08;51.86;99682.23;107664;1282;22558;-86
2022/03/13 07:41:59;;;;;;;98.50;42.20;;;;;;;0.23;50.74;99683.16;107677;1282;22569;-80
2022/03/13 07:44:26;;;;;;;97.60;42.60;;;;;;;0.41;50.16;99683.21;107685;1282;22572;-76
2022/03/13 07:46:53;;;;;;;115.00;50.30;;;;;;;0.54;48.97;99681.39;107673;1282;22587;-84
2022/03/13 07:49:20;;;;;;;93.50;41.40;;;;;;;0.67;50.23;99680.59;107670;1282;22554;-72
2022/03/13 07:51:47;;;;;;;126.30;56.00;;;;;;;0.83;49.19;99681.14;107661;1282;22596;-74
2022/03/13 07:54:16;;;;;;;230.30;86.40;;;;;;;0.96;49.71;99680.83;107664;1282;22770;-72
2022/03/13 07:56:43;;;;;;;119.50;52.00;;;;;;;1.10;49.33;99680.69;107664;1282;22590;-82
2022/03/13 07:59:10;;;;;;;116.70;52.10;;;;;;;1.25;48.99;99682.25;107636;1282;22553;-73
2022/03/13 08:01:37;;;;;;;141.70;58.60;;;;;;;1.40;48.27;99679.33;107710;1282;22552;-73
2022/03/13 08:04:05;;;;;;;163.50;74.70;;;;;;;1.53;46.74;99676.94;107659;1282;22632;-74
2022/03/13 08:06:34;;;;;;;103.40;45.60;;;;;;;1.67;46.04;99684.51;107701;1282;22555;-73
2022/03/13 08:09:03;;;;;;;107.50;43.60;;;;;;;1.84;45.06;99684.61;107716;1281;22557;-74
2022/03/13 08:11:34;;;;;;;86.70;38.10;;;;;;;1.99;45.02;99682.54;107654;1282;22623;-79
2022/03/13 08:14:03;;;;;;;73.30;32.50;;;;;;;2.09;44.70;99684.27;107687;1282;22730;-73
2022/03/13 08:16:30;;;;;;;76.70;34.60;;;;;;;2.22;44.27;99682.70;107706;1282;23203;-80
2022/03/13 08:18:57;;;;;;;82.20;36.10;;;;;;;2.36;43.49;99679.05;107688;1282;22555;-73
2022/03/13 08:21:25;;;;;;;90.00;38.90;;;;;;;2.46;43.61;99677.19;107691;1282;22559;-74
2022/03/13 08:23:52;;;;;;;78.80;37.20;;;;;;;2.56;42.34;99678.58;107712;1282;22630;-75
2022/03/13 08:26:19;;;;;;;86.40;38.20;;;;;;;2.69;42.73;99683.16;107660;1282;22663;-73
2022/03/13 08:28:46;;;;;;;122.10;52.00;;;;;;;2.81;42.55;99683.31;107661;1282;25307;-81
2022/03/13 08:31:14;;;;;;;107.30;51.20;;;;;;;2.91;43.10;99684.16;107677;1282;22685;-77
2022/03/13 08:33:45;;;;;;;104.60;45.30;;;;;;;3.04;42.60;99684.63;107695;1282;22553;-77
2022/03/13 08:36:13;;;;;;;89.60;39.60;;;;;;;3.17;42.02;99682.14;107689;1282;22603;-73
2022/03/13 08:38:40;;;;;;;81.80;37.90;;;;;;;3.31;41.60;99686.00;107682;1282;22544;-71
2022/03/13 08:41:08;;;;;;;64.30;30.30;;;;;;;3.44;41.67;99683.02;107664;1281;22554;-74
2022/03/13 08:43:35;;;;;;;64.20;30.10;;;;;;;3.56;40.17;99679.84;107692;1282;22569;-73
2022/03/13 08:46:02;;;;;;;50.70;24.70;;;;;;;3.66;41.17;99681.52;107669;1282;22565;-81
2022/03/13 08:48:29;;;;;;;98.60;39.70;;;;;;;3.73;40.69;99679.48;107660;1282;22582;-74
2022/03/13 08:50:57;;;;;;;61.30;29.00;;;;;;;3.79;38.26;99682.63;107668;1282;22560;-77
2022/03/13 08:53:25;;;;;;;64.60;30.40;;;;;;;3.84;38.48;99681.14;107704;1282;22566;-76
2022/03/13 08:55:52;;;;;;;62.10;27.70;;;;;;;3.94;38.66;99678.16;107799;1282;24246;-80
2022/03/13 08:58:19;;;;;;;52.70;26.10;;;;;;;4.01;37.24;99679.05;107700;1282;25100;-72
2022/03/13 09:00:49;;;;;;;57.90;27.90;;;;;;;4.05;36.38;99674.13;107916;1282;22543;-74
2022/03/13 09:03:16;;;;;;;65.70;32.40;;;;;;;4.11;36.27;99676.05;108021;1282;22539;-84
2022/03/13 09:05:43;;;;;;;50.70;25.70;;;;;;;4.20;36.76;99674.48;107982;1282;22594;-83
2022/03/13 09:08:11;;;;;;;49.90;23.20;;;;;;;4.26;36.39;99674.36;107980;1282;22740;-74
2022/03/13 09:10:38;;;;;;;40.20;19.00;;;;;;;4.32;35.65;99671.27;107995;1282;22653;-74
2022/03/13 09:13:05;;;;;;;52.60;21.80;;;;;;;4.37;35.58;99670.48;107985;1282;22585;-77
2022/03/13 09:15:32;;;;;;;53.20;25.90;;;;;;;4.45;34.60;99666.48;108007;1282;22563;-74
2022/03/13 09:18:02;;;;;;;37.50;18.40;;;;;;;4.52;34.29;99663.38;107990;1282;22547;-75
2022/03/13 09:20:29;;;;;;;32.70;17.30;;;;;;;4.52;33.01;99662.17;108039;1282;22553;-91
2022/03/13 09:22:56;;;;;;;36.50;17.70;;;;;;;4.52;33.60;99661.30;108022;1282;22546;-74
2022/03/13 09:25:23;;;;;;;38.50;18.20;;;;;;;4.52;33.54;99663.54;108006;1282;22562;-89
2022/03/13 09:27:52;;;;;;;37.60;18.40;;;;;;;4.54;33.67;99661.08;107988;1282;22660;-77
2022/03/13 09:30:19;;;;;;;37.50;17.20;;;;;;;4.59;33.55;99665.80;108019;1282;22541;-73
2022/03/13 09:32:46;;;;;;;37.80;17.80;;;;;;;4.63;33.28;99664.67;107977;1282;22554;-81
2022/03/13 09:35:13;;;;;;;40.10;20.40;;;;;;;4.68;33.22;99665.05;107985;1282;24243;-75
2022/03/13 09:37:41;;;;;;;50.30;24.60;;;;;;;4.69;32.94;99667.78;107994;1282;22536;-74
2022/03/13 09:40:10;;;;;;;50.10;24.70;;;;;;;4.70;32.41;99663.09;107993;1282;22545;-74
2022/03/13 09:42:37;;;;;;;79.50;34.30;;;;;;;4.74;33.42;99664.36;107823;1282;25536;-74
2022/03/13 09:45:05;;;;;;;59.00;28.10;;;;;;;4.78;33.67;99660.98;108041;1282;24250;-80
2022/03/13 09:47:32;;;;;;;126.00;47.80;;;;;;;4.83;33.40;99655.33;107753;1282;24251;-76
2022/03/13 09:50:00;;;;;;;63.90;28.10;;;;;;;4.88;33.33;99657.45;107999;1282;24239;-77
2022/03/13 09:52:27;;;;;;;83.50;40.30;;;;;;;4.94;33.37;99656.98;108011;1282;22647;-73
2022/03/13 09:54:54;;;;;;;130.80;58.20;;;;;;;4.96;32.78;99648.63;108009;1282;22564;-76
2022/03/13 09:57:21;;;;;;;52.00;23.60;;;;;;;5.02;31.41;99646.41;108009;1282;22570;-72
2022/03/13 09:59:48;;;;;;;57.90;25.10;;;;;;;5.05;31.18;99639.58;108014;1282;22580;-77
2022/03/13 10:02:15;;;;;;;43.40;20.70;;;;;;;5.15;29.94;99636.89;107994;1282;22585;-74
2022/03/13 10:04:42;;;;;;;35.20;18.40;;;;;;;5.21;30.37;99632.25;107982;1282;25514;-90
2022/03/13 10:07:12;;;;;;;46.50;21.80;;;;;;;5.23;30.58;99626.14;107768;1282;22578;-77
2022/03/13 10:09:43;;;;;;;56.70;25.90;;;;;;;5.28;30.95;99625.82;108003;1282;22546;-84
2022/03/13 10:12:17;;;;;;;38.60;19.50;;;;;;;5.37;30.91;99624.01;108006;1282;22638;-83
2022/03/13 10:15:05;;;;;;;31.50;17.40;;;;;;;5.47;30.08;99625.29;107965;1282;22570;-75
2022/03/13 10:17:35;;;;;;;43.10;20.30;;;;;;;5.60;29.94;99624.91;108028;1282;25512;-76
2022/03/13 10:20:18;;;;;;;57.40;28.40;;;;;;;5.70;29.53;99624.27;107991;1282;22559;-82
2022/03/13 10:22:47;;;;;;;48.10;23.20;;;;;;;5.84;28.95;99624.70;107964;1282;24394;-80
2022/03/13 10:25:36;;;;;;;38.60;18.50;;;;;;;5.96;29.84;99627.98;107709;1282;22563;-75
2022/03/13 10:28:15;;;;;;;25.60;13.80;;;;;;;6.04;28.97;99618.74;107706;1282;22632;-80
2022/03/13 10:30:44;;;;;;;23.60;12.40;;;;;;;6.13;29.01;99616.57;107722;1282;22639;-72
2022/03/13 10:33:11;;;;;;;23.70;12.60;;;;;;;6.22;28.02;99616.11;107721;1282;22621;-77
2022/03/13 10:35:40;;;;;;;25.40;13.70;;;;;;;6.31;27.71;99613.41;107724;1282;24233;-78
2022/03/13 10:38:15;;;;;;;36.50;18.90;;;;;;;6.38;27.35;99612.83;108116;1282;22324;-96
2022/03/13 10:40:43;;;;;;;25.60;14.10;;;;;;;6.44;28.06;99607.77;107801;1282;22604;-73
2022/03/13 10:43:10;;;;;;;24.80;13.10;;;;;;;6.51;28.14;99604.43;107855;1282;22577;-89
2022/03/13 10:45:49;;;;;;;32.60;16.60;;;;;;;6.62;27.98;99608.20;107721;1282;22717;-73
2022/03/13 10:48:28;;;;;;;38.40;18.90;;;;;;;6.79;27.00;99604.50;107733;1282;22686;-74
2022/03/13 10:50:59;;;;;;;36.60;18.70;;;;;;;6.94;27.55;99605.89;107806;1282;23003;-74
2022/03/13 10:53:27;;;;;;;42.70;24.20;;;;;;;7.09;26.77;99603.11;107746;1282;22615;-90
2022/03/13 10:56:07;;;;;;;37.70;20.80;;;;;;;7.16;26.24;99598.36;107722;1282;22569;-89
2022/03/13 10:58:40;;;;;;;31.10;16.70;;;;;;;7.27;25.46;99599.18;107732;1282;22605;-82
2022/03/13 11:01:09;;;;;;;;;;;;;;;7.29;24.45;99601.54;107760;1282;22735;-80
2022/03/13 11:03:49;;;;;;;34.40;18.50;;;;;;;7.30;25.50;99597.87;107711;1281;22613;-87
2022/03/13 11:06:17;;;;;;;32.90;19.40;;;;;;;7.31;26.45;99596.78;107911;1282;22532;-81
2022/03/13 11:08:44;;;;;;;28.50;15.90;;;;;;;7.29;25.29;99597.53;107972;1282;22569;-78
2022/03/13 11:11:16;;;;;;;35.70;17.90;;;;;;;7.30;25.36;99595.09;108008;1282;22559;-89